createdAt,value
2022-08-18T00:01:23.050Z,25.89
2022-08-18T00:03:56.432Z,25.92
2022-08-18T00:06:29.569Z,26.25
2022-08-18T00:08:58.816Z,26.25
2022-08-18T00:11:26.689Z,26.25
2022-08-18T00:13:54.387Z,26.23
2022-08-18T00:16:22.139Z,26.22
2022-08-18T00:18:49.845Z,26.21
2022-08-18T00:21:17.731Z,26.20
2022-08-18T00:23:46.765Z,26.20
2022-08-18T00:26:14.489Z,26.18
2022-08-18T00:28:42.194Z,26.17
2022-08-18T00:31:09.948Z,26.16
2022-08-18T00:33:37.650Z,26.16
2022-08-18T00:36:05.855Z,25.99
2022-08-18T00:38:33.539Z,26.14
2022-08-18T00:41:02.589Z,26.13
2022-08-18T00:43:33.248Z,25.91
2022-08-18T00:46:00.961Z,26.12
2022-08-18T00:48:30.084Z,26.10
2022-08-18T00:50:59.178Z,26.10
2022-08-18T00:53:29.420Z,26.05
2022-08-18T00:55:57.496Z,26.09
2022-08-18T00:58:29.282Z,26.10
2022-08-18T01:00:57.089Z,26.09
2022-08-18T01:03:25.321Z,25.89
2022-08-18T01:05:54.875Z,25.61
2022-08-18T01:08:28.946Z,26.05
2022-08-18T01:10:57.223Z,26.04
2022-08-18T01:13:28.149Z,26.04
2022-08-18T01:15:55.925Z,26.01
2022-08-18T01:18:52.784Z,25.64
2022-08-18T01:21:41.101Z,26.00
2022-08-18T01:24:11.501Z,25.98
2022-08-18T01:26:45.560Z,25.97
2022-08-18T01:29:18.619Z,25.98
2022-08-18T01:31:54.723Z,25.98
2022-08-18T01:34:24.700Z,25.96
2022-08-18T01:36:53.376Z,25.96
2022-08-18T01:41:25.812Z,25.95
2022-08-18T01:42:10.295Z,25.93
2022-08-18T01:44:40.528Z,25.93
2022-08-18T01:47:08.729Z,25.93
2022-08-18T01:49:36.432Z,25.92
2022-08-18T01:52:07.183Z,25.90
2022-08-18T01:54:36.217Z,25.89
2022-08-18T01:57:04.170Z,25.88
2022-08-18T01:59:31.898Z,25.87
2022-08-18T02:02:00.423Z,25.88
2022-08-18T02:04:37.306Z,25.87
2022-08-18T02:07:06.865Z,25.62
2022-08-18T02:09:36.564Z,25.85
2022-08-18T02:12:05.832Z,25.86
2022-08-18T02:14:33.556Z,25.84
2022-08-18T02:17:02.902Z,25.82
2022-08-18T02:19:34.059Z,25.81
2022-08-18T02:22:01.862Z,25.80
2022-08-18T02:24:29.566Z,25.80
2022-08-18T02:26:58.659Z,25.79
2022-08-18T02:29:26.339Z,25.77
2022-08-18T02:31:54.176Z,25.77
2022-08-18T02:34:21.864Z,25.77
2022-08-18T02:36:49.584Z,25.76
2022-08-18T02:39:17.277Z,25.77
2022-08-18T02:41:45.002Z,25.76
2022-08-18T02:44:14.343Z,25.75
2022-08-18T02:46:42.061Z,25.74
2022-08-18T02:49:09.756Z,25.74
2022-08-18T02:51:37.500Z,25.71
2022-08-18T02:54:09.313Z,25.69
2022-08-18T02:56:41.308Z,25.68
2022-08-18T02:59:11.178Z,25.67
2022-08-18T03:01:42.116Z,25.68
2022-08-18T03:04:11.035Z,25.37
2022-08-18T03:06:39.225Z,25.67
2022-08-18T03:09:08.190Z,25.67
2022-08-18T03:11:35.946Z,25.66
2022-08-18T03:14:05.340Z,25.44
2022-08-18T03:16:33.248Z,25.62
2022-08-18T03:19:02.628Z,25.62
2022-08-18T03:21:31.363Z,25.60
2022-08-18T03:24:00.938Z,25.59
2022-08-18T03:26:30.232Z,25.58
2022-08-18T03:28:58.408Z,25.56
2022-08-18T03:31:27.733Z,25.55
2022-08-18T03:33:59.412Z,25.53
2022-08-18T03:36:30.677Z,25.54
2022-08-18T03:38:58.409Z,25.53
2022-08-18T03:41:43.823Z,25.52
2022-08-18T03:44:15.362Z,25.52
2022-08-18T03:46:43.165Z,25.49
2022-08-18T03:49:11.012Z,25.50
2022-08-18T03:51:40.197Z,25.47
2022-08-18T03:54:07.891Z,25.47
2022-08-18T03:56:38.147Z,25.46
2022-08-18T03:59:08.631Z,25.46
2022-08-18T04:01:39.490Z,25.46
2022-08-18T04:04:08.515Z,25.45
2022-08-18T04:06:39.367Z,25.44
2022-08-18T04:09:10.514Z,25.43
2022-08-18T04:11:38.675Z,25.30
2022-08-18T04:14:06.372Z,25.41
2022-08-18T04:16:34.910Z,25.42
2022-08-18T04:19:04.169Z,25.42
2022-08-18T04:21:32.989Z,25.24
2022-08-18T04:24:04.802Z,25.39
2022-08-18T04:26:34.545Z,24.95
2022-08-18T04:29:02.355Z,25.33
2022-08-18T04:31:30.319Z,25.34
2022-08-18T04:33:58.454Z,25.04
2022-08-18T04:36:26.335Z,25.34
2022-08-18T04:41:12.436Z,25.23
2022-08-18T04:43:41.590Z,25.31
2022-08-18T04:46:09.449Z,25.31
2022-08-18T04:48:38.363Z,25.06
2022-08-18T04:51:07.957Z,25.31
2022-08-18T04:53:46.964Z,25.32
2022-08-18T04:56:15.770Z,25.28
2022-08-18T04:58:52.252Z,25.29
2022-08-18T05:01:20.470Z,25.29
2022-08-18T05:03:50.281Z,25.30
2022-08-18T05:06:18.437Z,25.29
2022-08-18T05:08:48.293Z,25.13
2022-08-18T05:11:16.024Z,25.30
2022-08-18T05:13:43.965Z,25.29
2022-08-18T05:16:18.050Z,25.29
2022-08-18T05:18:47.281Z,25.29
2022-08-18T05:21:15.764Z,25.29
2022-08-18T05:23:43.793Z,25.29
2022-08-18T05:26:11.800Z,25.31
2022-08-18T05:28:39.493Z,25.31
2022-08-18T05:31:13.525Z,25.31
2022-08-18T05:33:43.012Z,25.29
2022-08-18T05:36:14.504Z,25.29
2022-08-18T05:38:48.589Z,25.30
2022-08-18T05:41:22.805Z,24.99
2022-08-18T05:43:51.982Z,25.32
2022-08-18T05:46:20.896Z,25.29
2022-08-18T05:48:51.026Z,25.29
2022-08-18T05:51:20.987Z,25.26
2022-08-18T05:54:05.888Z,25.29
2022-08-18T05:56:47.589Z,24.95
2022-08-18T05:59:23.115Z,25.33
2022-08-18T06:01:54.201Z,25.33
2022-08-18T06:04:31.392Z,25.13
2022-08-18T06:06:59.136Z,25.33
2022-08-18T06:09:29.198Z,25.34
2022-08-18T06:12:00.037Z,25.34
2022-08-18T06:14:27.759Z,24.70
2022-08-18T06:16:57.843Z,25.10
2022-08-18T06:19:36.103Z,25.08
2022-08-18T06:22:07.641Z,25.35
2022-08-18T06:24:37.485Z,25.36
2022-08-18T06:27:09.941Z,25.36
2022-08-18T06:29:47.892Z,25.37
2022-08-18T06:32:19.710Z,25.39
2022-08-18T06:34:57.380Z,25.29
2022-08-18T06:37:27.545Z,25.40
2022-08-18T06:39:57.175Z,25.41
2022-08-18T06:42:30.496Z,25.41
2022-08-18T06:45:01.133Z,25.09
2022-08-18T06:47:35.608Z,25.37
2022-08-18T06:50:07.019Z,25.44
2022-08-18T06:52:35.990Z,25.44
2022-08-18T06:55:06.145Z,25.16
2022-08-18T06:57:34.965Z,25.11
2022-08-18T07:00:07.518Z,25.14
2022-08-18T07:02:48.278Z,25.47
2022-08-18T07:05:24.881Z,25.47
2022-08-18T07:08:11.467Z,25.37
2022-08-18T07:10:40.249Z,25.48
2022-08-18T07:13:23.463Z,25.50
2022-08-18T07:15:51.756Z,25.48
2022-08-18T07:18:24.560Z,25.48
2022-08-18T07:20:54.705Z,25.02
2022-08-18T07:23:25.358Z,25.27
2022-08-18T07:26:00.363Z,25.47
2022-08-18T07:28:30.625Z,25.48
2022-08-18T07:31:17.315Z,25.49
2022-08-18T07:33:48.977Z,25.49
2022-08-18T07:36:18.068Z,25.49
2022-08-18T07:38:48.292Z,25.20
2022-08-18T07:41:18.068Z,25.27
2022-08-18T07:43:52.118Z,25.35
2022-08-18T07:46:23.865Z,25.21
2022-08-18T07:48:51.659Z,25.54
2022-08-18T07:51:24.328Z,25.53
2022-08-18T07:53:56.545Z,25.55
2022-08-18T07:56:29.636Z,25.56
2022-08-18T07:58:59.715Z,25.20
2022-08-18T08:01:33.664Z,25.24
2022-08-18T08:04:06.319Z,25.58
2022-08-18T08:06:38.929Z,25.59
2022-08-18T08:09:10.544Z,25.45
2022-08-18T08:11:44.573Z,25.34
2022-08-18T08:14:31.213Z,25.54
2022-08-18T08:17:04.652Z,25.63
2022-08-18T08:20:01.211Z,25.65
2022-08-18T08:22:32.773Z,25.66
2022-08-18T08:25:04.434Z,25.45
2022-08-18T08:27:39.336Z,25.73
2022-08-18T08:30:08.672Z,25.50
2022-08-18T08:32:37.318Z,25.77
2022-08-18T08:35:07.461Z,25.80
2022-08-18T08:37:42.196Z,25.44
2022-08-18T08:40:14.570Z,25.83
2022-08-18T08:42:44.439Z,25.82
2022-08-18T08:45:14.695Z,25.84
2022-08-18T08:47:45.414Z,25.62
2022-08-18T08:50:14.929Z,25.87
2022-08-18T08:52:45.818Z,25.88
2022-08-18T08:55:16.462Z,25.89
2022-08-18T08:57:46.811Z,25.89
2022-08-18T09:00:15.460Z,25.49
2022-08-18T09:02:53.980Z,25.92
2022-08-18T09:05:23.174Z,25.68
2022-08-18T09:08:03.076Z,25.95
2022-08-18T09:10:34.131Z,25.94
2022-08-18T09:13:10.840Z,25.97
2022-08-18T09:15:51.432Z,26.00
2022-08-18T09:18:37.177Z,26.02
2022-08-18T09:21:12.515Z,26.02
2022-08-18T09:23:43.651Z,25.74
2022-08-18T09:26:27.611Z,26.08
2022-08-18T09:28:58.049Z,26.09
2022-08-18T09:31:26.127Z,26.12
2022-08-18T09:34:09.721Z,25.85
2022-08-18T09:36:44.968Z,26.17
2022-08-18T09:39:40.411Z,26.19
2022-08-18T09:42:09.688Z,25.96
2022-08-18T09:48:30.837Z,26.20
2022-08-18T09:51:36.352Z,26.20
2022-08-18T09:54:20.857Z,26.19
2022-08-18T09:57:21.538Z,26.19
2022-08-18T10:00:24.331Z,26.18
2022-08-18T10:03:25.828Z,26.18
2022-08-18T10:06:16.048Z,26.17
2022-08-18T10:12:20.199Z,26.17
2022-08-18T10:15:12.274Z,26.16
2022-08-18T10:17:50.295Z,26.16
2022-08-18T10:20:27.134Z,26.17
2022-08-18T10:22:55.158Z,26.16
2022-08-18T10:25:33.708Z,25.83
2022-08-18T10:28:05.887Z,26.20
2022-08-18T10:33:59.719Z,26.21
2022-08-18T10:36:47.031Z,26.22
2022-08-18T10:39:15.849Z,26.22
2022-08-18T10:42:00.269Z,25.87
2022-08-18T10:44:29.575Z,26.23
2022-08-18T10:47:00.410Z,25.89
2022-08-18T10:49:28.900Z,26.27
2022-08-18T10:52:14.657Z,26.31
2022-08-18T10:54:54.521Z,26.34
2022-08-18T10:57:28.366Z,26.36
2022-08-18T10:59:58.250Z,26.39
2022-08-18T11:02:40.026Z,26.41
2022-08-18T11:05:09.539Z,26.42
2022-08-18T11:07:39.696Z,26.44
2022-08-18T11:10:34.692Z,26.43
2022-08-18T11:13:09.881Z,26.21
2022-08-18T11:15:45.205Z,26.46
2022-08-18T11:18:22.963Z,26.45
2022-08-18T11:20:52.342Z,26.45
2022-08-18T11:23:20.070Z,26.45
2022-08-18T11:25:48.433Z,26.46
2022-08-18T11:33:55.405Z,26.50
2022-08-18T11:36:31.458Z,26.51
2022-08-18T11:38:59.303Z,26.51
2022-08-18T11:41:33.918Z,26.52
2022-08-18T11:44:19.051Z,26.26
2022-08-18T11:46:51.763Z,26.54
2022-08-18T11:49:27.281Z,26.54
2022-08-18T11:51:57.429Z,26.37
2022-08-18T11:54:37.499Z,26.57
2022-08-18T11:57:42.800Z,26.59
2022-08-18T12:00:52.829Z,26.62
2022-08-18T12:03:28.514Z,26.33
2022-08-18T12:05:59.551Z,26.42
2022-08-18T12:08:56.983Z,26.67
2022-08-18T12:14:30.391Z,26.69
2022-08-18T12:17:01.407Z,26.70
2022-08-18T12:19:31.066Z,26.69
2022-08-18T12:22:01.938Z,26.68
2022-08-18T12:27:31.824Z,26.68
2022-08-18T12:30:01.728Z,26.68
2022-08-18T12:35:21.801Z,26.67
2022-08-18T12:37:59.547Z,26.69
2022-08-18T12:40:28.464Z,26.69
2022-08-18T12:42:56.820Z,26.70
2022-08-18T12:45:25.865Z,26.41
2022-08-18T12:47:55.028Z,26.71
2022-08-18T12:53:11.892Z,26.72
2022-08-18T12:55:43.715Z,26.73
2022-08-18T12:58:13.303Z,26.75
2022-08-18T13:00:41.741Z,26.78
2022-08-18T13:03:10.303Z,26.78
2022-08-18T13:05:38.299Z,26.51
2022-08-18T13:08:07.300Z,26.50
2022-08-18T13:10:44.967Z,26.82
2022-08-18T13:13:13.971Z,26.85
2022-08-18T13:15:44.274Z,26.66
2022-08-18T13:18:29.041Z,26.86
2022-08-18T13:20:57.666Z,26.87
2022-08-18T13:23:27.271Z,26.62
2022-08-18T13:26:01.231Z,26.85
2022-08-18T13:28:30.489Z,26.89
2022-08-18T13:30:58.521Z,26.84
2022-08-18T13:33:34.574Z,26.90
2022-08-18T13:36:14.140Z,26.90
2022-08-18T13:38:43.519Z,26.91
2022-08-18T13:41:15.619Z,26.50
2022-08-18T13:43:44.654Z,26.91
2022-08-18T13:46:16.803Z,26.91
2022-08-18T13:48:44.642Z,26.92
2022-08-18T13:51:19.254Z,26.92
2022-08-18T13:53:59.042Z,26.92
2022-08-18T13:56:35.618Z,26.92
2022-08-18T13:59:04.942Z,26.92
2022-08-18T14:01:44.208Z,26.91
2022-08-18T14:04:20.559Z,26.92
2022-08-18T14:06:51.456Z,26.92
2022-08-18T14:09:36.603Z,26.92
2022-08-18T14:12:21.463Z,26.64
2022-08-18T14:14:52.024Z,26.92
2022-08-18T14:17:20.159Z,26.92
2022-08-18T14:20:04.625Z,26.92
2022-08-18T14:22:50.025Z,26.92
2022-08-18T14:25:35.877Z,26.91
2022-08-18T14:28:05.293Z,26.88
2022-08-18T14:30:33.506Z,26.91
2022-08-18T14:33:01.606Z,26.71
2022-08-18T14:36:03.693Z,26.89
2022-08-18T14:38:17.511Z,26.89
2022-08-18T14:40:45.779Z,26.88
2022-08-18T14:43:15.767Z,26.37
2022-08-18T14:45:47.412Z,26.88
2022-08-18T14:48:17.648Z,26.85
2022-08-18T14:50:49.144Z,26.87
2022-08-18T14:53:20.152Z,26.87
2022-08-18T14:55:49.522Z,26.86
2022-08-18T14:58:20.960Z,26.85
2022-08-18T15:00:53.890Z,26.85
2022-08-18T15:03:31.082Z,26.45
2022-08-18T15:06:00.177Z,26.84
2022-08-18T15:08:28.196Z,26.84
2022-08-18T15:10:56.063Z,26.82
2022-08-18T15:13:26.682Z,26.82
2022-08-18T15:15:55.868Z,26.83
2022-08-18T15:18:29.912Z,26.82
2022-08-18T15:21:19.363Z,26.81
2022-08-18T15:24:20.502Z,26.80
2022-08-18T15:26:51.750Z,26.80
2022-08-18T15:29:28.047Z,26.79
2022-08-18T15:32:02.288Z,26.80
2022-08-18T15:34:46.320Z,26.78
2022-08-18T15:37:19.487Z,26.77
2022-08-18T15:39:55.568Z,26.76
2022-08-18T15:42:27.016Z,26.77
2022-08-18T15:44:56.791Z,26.77
2022-08-18T15:47:25.201Z,26.76
2022-08-18T15:49:54.674Z,26.75
2022-08-18T15:52:25.826Z,26.76
2022-08-18T15:54:57.006Z,26.76
2022-08-18T15:57:39.466Z,26.75
2022-08-18T16:00:11.963Z,26.17
2022-08-18T16:02:40.492Z,26.74
2022-08-18T16:05:14.269Z,26.75
2022-08-18T16:07:47.864Z,26.74
2022-08-18T16:10:16.173Z,26.74
2022-08-18T16:12:46.107Z,26.74
2022-08-18T16:15:19.461Z,26.74
2022-08-18T16:17:47.927Z,26.72
2022-08-18T16:20:15.831Z,26.73
2022-08-18T16:22:43.568Z,26.73
2022-08-18T16:25:11.348Z,26.72
2022-08-18T16:27:41.499Z,26.41
2022-08-18T16:30:10.244Z,26.71
2022-08-18T16:32:39.310Z,26.50
2022-08-18T16:35:07.500Z,26.69
2022-08-18T16:37:35.375Z,26.69
2022-08-18T16:40:03.245Z,26.68
2022-08-18T16:42:32.695Z,26.66
2022-08-18T16:45:00.543Z,26.67
2022-08-18T16:47:28.406Z,26.66
2022-08-18T16:49:58.701Z,26.66
2022-08-18T16:52:27.160Z,26.66
2022-08-18T16:54:57.389Z,26.60
2022-08-18T16:57:53.296Z,26.64
2022-08-18T17:00:41.044Z,26.63
2022-08-18T17:03:26.329Z,26.62
2022-08-18T17:06:02.595Z,26.60
2022-08-18T17:08:33.534Z,26.60
2022-08-18T17:11:01.868Z,26.59
2022-08-18T17:13:29.706Z,26.58
2022-08-18T17:15:57.477Z,26.59
2022-08-18T17:18:25.210Z,26.59
2022-08-18T17:20:53.482Z,26.57
2022-08-18T17:23:24.556Z,26.56
2022-08-18T17:25:52.270Z,26.55
2022-08-18T17:28:20.196Z,26.56
2022-08-18T17:30:52.813Z,26.54
2022-08-18T17:33:24.623Z,26.53
2022-08-18T17:35:54.104Z,26.54
2022-08-18T17:38:28.003Z,26.31
2022-08-18T17:40:56.594Z,26.52
2022-08-18T17:43:26.124Z,26.21
2022-08-18T17:45:55.361Z,26.42
2022-08-18T17:48:23.981Z,26.52
2022-08-18T17:51:13.673Z,26.13
2022-08-18T17:53:42.833Z,26.37
2022-08-18T17:56:12.748Z,26.27
2022-08-18T17:58:40.836Z,26.46
2022-08-18T18:01:09.010Z,26.46
2022-08-18T18:03:36.798Z,26.46
2022-08-18T18:06:10.326Z,26.45
2022-08-18T18:08:54.848Z,26.27
2022-08-18T18:11:27.391Z,26.03
2022-08-18T18:13:55.596Z,26.34
2022-08-18T18:16:29.224Z,26.44
2022-08-18T18:19:01.268Z,26.42
2022-08-18T18:22:00.771Z,26.13
2022-08-18T18:24:24.143Z,26.42
2022-08-18T18:26:52.152Z,26.41
2022-08-18T18:29:21.949Z,26.39
2022-08-18T18:32:01.739Z,26.34
2022-08-18T18:34:32.897Z,26.39
2022-08-18T18:37:01.688Z,26.38
2022-08-18T18:39:33.195Z,26.39
2022-08-18T18:42:11.954Z,26.25
2022-08-18T18:44:39.756Z,26.36
2022-08-18T18:47:09.592Z,26.34
2022-08-18T18:49:40.799Z,25.98
2022-08-18T18:52:11.691Z,26.33
2022-08-18T18:54:56.039Z,25.58
2022-08-18T18:57:32.098Z,26.08
2022-08-18T19:00:09.502Z,26.32
2022-08-18T19:02:39.936Z,26.31
2022-08-18T19:05:14.561Z,26.21
2022-08-18T19:07:50.025Z,26.12
2022-08-18T19:10:21.601Z,26.28
2022-08-18T19:12:52.234Z,26.29
2022-08-18T19:15:21.152Z,26.29
2022-08-18T19:17:50.986Z,26.29
2022-08-18T19:20:20.280Z,26.27
2022-08-18T19:22:49.530Z,26.20
2022-08-18T19:25:22.283Z,26.18
2022-08-18T19:27:52.592Z,26.17
2022-08-18T19:30:21.478Z,26.25
2022-08-18T19:32:51.804Z,26.04
2022-08-18T19:35:23.253Z,26.21
2022-08-18T19:37:58.182Z,25.74
2022-08-18T19:40:32.513Z,25.98
2022-08-18T19:43:01.608Z,26.23
2022-08-18T19:45:33.542Z,25.89
2022-08-18T19:48:04.598Z,26.21
2022-08-18T19:50:34.599Z,26.21
2022-08-18T19:53:06.697Z,26.18
2022-08-18T19:55:48.641Z,26.18
2022-08-18T19:58:40.530Z,26.02
2022-08-18T20:01:30.751Z,26.18
2022-08-18T20:04:03.908Z,26.18
2022-08-18T20:06:45.985Z,26.19
2022-08-18T20:09:30.242Z,26.18
2022-08-18T20:12:09.727Z,26.01
2022-08-18T20:14:39.364Z,26.16
2022-08-18T20:17:14.501Z,25.91
2022-08-18T20:19:47.797Z,26.17
2022-08-18T20:22:30.121Z,26.16
2022-08-18T20:25:05.478Z,26.15
2022-08-18T20:27:36.505Z,25.91
2022-08-18T20:30:24.122Z,26.15
2022-08-18T20:33:20.636Z,26.13
2022-08-18T20:35:52.894Z,26.11
2022-08-18T20:38:28.344Z,26.12
2022-08-18T20:40:56.436Z,26.11
2022-08-18T20:43:30.612Z,26.11
2022-08-18T20:46:06.949Z,26.12
2022-08-18T20:48:42.928Z,26.12
2022-08-18T20:51:11.257Z,26.11
2022-08-18T20:54:04.089Z,26.08
2022-08-18T20:56:44.480Z,25.94
2022-08-18T20:59:19.588Z,25.75
2022-08-18T21:01:55.004Z,26.09
2022-08-18T21:04:34.833Z,26.07
2022-08-18T21:07:12.874Z,25.83
2022-08-18T21:09:40.902Z,26.06
2022-08-18T21:12:12.788Z,26.04
2022-08-18T21:14:43.691Z,26.06
2022-08-18T21:17:13.900Z,26.04
2022-08-18T21:19:42.134Z,26.01
2022-08-18T21:22:11.835Z,25.74
2022-08-18T21:24:41.770Z,26.03
2022-08-18T21:27:11.829Z,26.02
2022-08-18T21:29:47.619Z,26.01
2022-08-18T21:32:20.214Z,25.68
2022-08-18T21:34:48.172Z,26.01
2022-08-18T21:37:18.058Z,26.02
2022-08-18T21:39:49.837Z,25.99
2022-08-18T21:42:20.442Z,25.98
2022-08-18T21:44:48.343Z,26.00
2022-08-18T21:47:26.360Z,25.98
2022-08-18T21:50:23.649Z,25.99
2022-08-18T21:52:53.955Z,25.75
2022-08-18T21:55:26.698Z,25.64
2022-08-18T21:58:06.550Z,25.47
2022-08-18T22:00:35.441Z,25.87
2022-08-18T22:03:11.847Z,25.59
2022-08-18T22:05:57.820Z,25.96
2022-08-18T22:08:28.011Z,25.95
2022-08-18T22:11:41.868Z,25.70
2022-08-18T22:14:35.993Z,25.94
2022-08-18T22:17:29.844Z,25.93
2022-08-18T22:20:12.717Z,25.92
2022-08-18T22:22:59.161Z,25.92
2022-08-18T22:25:26.977Z,25.92
2022-08-18T22:27:57.355Z,25.91
2022-08-18T22:30:25.304Z,25.92
2022-08-18T22:32:53.505Z,25.91
2022-08-18T22:35:21.350Z,25.93
2022-08-18T22:37:50.990Z,25.91
2022-08-18T22:40:21.753Z,25.91
2022-08-18T22:42:49.905Z,25.90
2022-08-18T22:45:18.860Z,25.89
2022-08-18T22:47:46.561Z,25.88
2022-08-18T22:50:14.539Z,25.88
2022-08-18T22:52:43.145Z,25.59
2022-08-18T22:55:13.460Z,25.87
2022-08-18T22:57:42.906Z,25.87
2022-08-18T23:00:12.270Z,25.85
2022-08-18T23:02:40.368Z,25.84
2022-08-18T23:05:08.711Z,25.53
2022-08-18T23:07:36.596Z,25.83
2022-08-18T23:10:08.318Z,25.82
2022-08-18T23:12:43.686Z,25.80
2022-08-18T23:15:12.169Z,25.81
2022-08-18T23:17:40.693Z,25.77
2022-08-18T23:20:09.782Z,25.80
2022-08-18T23:22:39.497Z,25.37
2022-08-18T23:25:09.065Z,25.53
2022-08-18T23:27:37.029Z,25.76
2022-08-18T23:30:07.068Z,25.76
2022-08-18T23:32:34.751Z,25.77
2022-08-18T23:35:02.486Z,25.76
2022-08-18T23:37:31.693Z,25.78
2022-08-18T23:39:59.575Z,25.76
2022-08-18T23:42:27.339Z,25.77
2022-08-18T23:44:58.931Z,25.76
2022-08-18T23:47:29.761Z,25.76
2022-08-18T23:49:57.610Z,25.75
2022-08-18T23:52:25.304Z,25.74
2022-08-18T23:54:53.023Z,25.73
2022-08-18T23:57:20.879Z,25.72
2022-08-18T23:59:48.592Z,25.73
